createdAt,value
2023-03-05T00:01:40.070Z,-0.80
2023-03-05T00:04:16.281Z,-0.82
2023-03-05T00:06:49.728Z,-0.83
2023-03-05T00:09:23.692Z,-0.84
2023-03-05T00:11:57.325Z,-0.87
2023-03-05T00:14:31.245Z,-0.88
2023-03-05T00:17:04.772Z,-0.89
2023-03-05T00:19:38.421Z,-0.89
2023-03-05T00:22:11.865Z,-0.89
2023-03-05T00:24:45.760Z,-0.92
2023-03-05T00:27:23.076Z,-0.92
2023-03-05T00:29:56.540Z,-0.93
2023-03-05T00:32:30.814Z,-0.95
2023-03-05T00:35:04.518Z,-0.96
2023-03-05T00:37:38.430Z,-0.97
2023-03-05T00:40:14.529Z,-0.99
2023-03-05T00:42:48.695Z,-1.01
2023-03-05T00:45:22.475Z,-1.02
2023-03-05T00:47:56.137Z,-1.01
2023-03-05T00:50:30.738Z,-1.00
2023-03-05T00:53:04.658Z,-1.00
2023-03-05T00:55:38.245Z,-1.01
2023-03-05T00:58:12.259Z,-1.01
2023-03-05T01:00:45.683Z,-1.02
2023-03-05T01:03:19.524Z,-1.03
2023-03-05T01:05:53.337Z,-1.05
2023-03-05T01:08:27.816Z,-1.06
2023-03-05T01:11:01.405Z,-1.08
2023-03-05T01:13:35.192Z,-1.09
2023-03-05T01:16:09.550Z,-1.10
2023-03-05T01:18:43.556Z,-1.10
2023-03-05T01:21:17.048Z,-1.10
2023-03-05T01:23:51.011Z,-1.10
2023-03-05T01:26:24.853Z,-1.11
2023-03-05T01:28:58.934Z,-1.13
2023-03-05T01:31:32.603Z,-1.14
2023-03-05T01:34:06.893Z,-1.16
2023-03-05T01:36:42.330Z,-1.18
2023-03-05T01:39:17.468Z,-1.20
2023-03-05T01:41:51.156Z,-1.20
2023-03-05T01:44:33.888Z,-1.22
2023-03-05T01:47:08.752Z,-1.24
2023-03-05T01:49:43.992Z,-1.26
2023-03-05T01:52:21.375Z,-1.28
2023-03-05T01:54:58.749Z,-1.31
2023-03-05T01:57:36.866Z,-1.32
2023-03-05T02:00:19.636Z,-1.34
2023-03-05T02:02:54.557Z,-1.35
2023-03-05T02:05:31.503Z,-1.37
2023-03-05T02:08:08.044Z,-1.38
2023-03-05T02:10:43.844Z,-1.39
2023-03-05T02:13:20.096Z,-1.40
2023-03-05T02:15:55.416Z,-1.40
2023-03-05T02:18:29.528Z,-1.40
2023-03-05T02:21:07.437Z,-1.40
2023-03-05T02:23:41.844Z,-1.38
2023-03-05T02:26:15.975Z,-1.37
2023-03-05T02:28:54.449Z,-1.36
2023-03-05T02:31:29.904Z,-1.36
2023-03-05T02:34:03.482Z,-1.37
2023-03-05T02:36:37.478Z,-1.38
2023-03-05T02:39:11.760Z,-1.39
2023-03-05T02:41:51.741Z,-1.41
2023-03-05T02:44:25.691Z,-1.43
2023-03-05T02:47:00.109Z,-1.45
2023-03-05T02:49:34.490Z,-1.46
2023-03-05T02:52:09.091Z,-1.48
2023-03-05T02:54:43.146Z,-1.50
2023-03-05T02:57:17.488Z,-1.51
2023-03-05T02:59:51.850Z,-1.53
2023-03-05T03:02:26.105Z,-1.55
2023-03-05T03:05:00.607Z,-1.55
2023-03-05T03:07:34.826Z,-1.53
2023-03-05T03:10:10.497Z,-1.51
2023-03-05T03:12:46.089Z,-1.48
2023-03-05T03:15:20.315Z,-1.47
2023-03-05T03:17:54.355Z,-1.44
2023-03-05T03:20:28.121Z,-1.42
2023-03-05T03:23:04.606Z,-1.41
2023-03-05T03:25:38.986Z,-1.40
2023-03-05T03:28:12.871Z,-1.40
2023-03-05T03:30:46.423Z,-1.39
2023-03-05T03:33:23.423Z,-1.39
2023-03-05T03:35:56.615Z,-1.37
2023-03-05T03:38:30.665Z,-1.37
2023-03-05T03:41:06.986Z,-1.40
2023-03-05T03:43:40.716Z,-1.40
2023-03-05T03:46:14.338Z,-1.41
2023-03-05T03:48:51.385Z,-1.42
2023-03-05T03:51:25.092Z,-1.43
2023-03-05T03:53:59.225Z,-1.45
2023-03-05T03:56:33.386Z,-1.45
2023-03-05T03:59:07.551Z,-1.43
2023-03-05T04:01:41.568Z,-1.40
2023-03-05T04:04:16.043Z,-1.38
2023-03-05T04:06:49.610Z,-1.37
2023-03-05T04:09:23.379Z,-1.37
2023-03-05T04:11:57.476Z,-1.38
2023-03-05T04:14:31.057Z,-1.40
2023-03-05T04:17:04.713Z,-1.43
2023-03-05T04:19:38.121Z,-1.44
2023-03-05T04:22:14.248Z,-1.46
2023-03-05T04:24:48.225Z,-1.47
2023-03-05T04:27:22.080Z,-1.48
2023-03-05T04:29:55.725Z,-1.47
2023-03-05T04:32:30.247Z,-1.45
2023-03-05T04:35:03.982Z,-1.43
2023-03-05T04:37:37.540Z,-1.37
2023-03-05T04:40:13.545Z,-1.32
2023-03-05T04:42:48.181Z,-1.28
2023-03-05T04:45:22.061Z,-1.26
2023-03-05T04:47:55.652Z,-1.22
2023-03-05T04:50:29.347Z,-1.19
2023-03-05T04:53:04.265Z,-1.16
2023-03-05T04:55:37.959Z,-1.12
2023-03-05T04:58:12.007Z,-1.12
2023-03-05T05:00:45.979Z,-1.11
2023-03-05T05:03:19.819Z,-1.09
2023-03-05T05:06:00.135Z,-1.08
2023-03-05T05:08:33.674Z,-1.08
2023-03-05T05:11:15.417Z,-1.10
2023-03-05T05:13:49.221Z,-1.11
2023-03-05T05:16:22.931Z,-1.12
2023-03-05T05:18:56.604Z,-1.12
2023-03-05T05:21:30.240Z,-1.13
2023-03-05T05:24:03.740Z,-1.15
2023-03-05T05:26:37.510Z,-1.15
2023-03-05T05:29:11.300Z,-1.14
2023-03-05T05:31:45.322Z,-1.13
2023-03-05T05:34:19.530Z,-1.11
2023-03-05T05:36:54.025Z,-1.11
2023-03-05T05:39:27.928Z,-1.09
2023-03-05T05:42:01.904Z,-1.07
2023-03-05T05:44:35.815Z,-1.05
2023-03-05T05:47:10.077Z,-1.03
2023-03-05T05:49:44.329Z,-1.01
2023-03-05T05:52:18.276Z,-0.98
2023-03-05T05:54:51.851Z,-0.94
2023-03-05T05:57:33.433Z,-0.85
2023-03-05T06:00:10.887Z,-0.59
2023-03-05T06:02:47.871Z,-0.02
2023-03-05T06:05:21.953Z,0.22
2023-03-05T06:07:56.221Z,0.41
2023-03-05T06:10:30.151Z,0.61
2023-03-05T06:13:11.780Z,0.56
2023-03-05T06:15:45.762Z,0.45
2023-03-05T06:18:19.838Z,0.39
2023-03-05T06:21:15.800Z,0.65
2023-03-05T06:23:50.457Z,1.68
2023-03-05T06:26:25.332Z,2.68
2023-03-05T06:28:59.418Z,3.46
2023-03-05T06:31:35.052Z,4.58
2023-03-05T06:34:10.252Z,6.03
2023-03-05T06:36:54.579Z,7.16
2023-03-05T06:39:28.415Z,6.87
2023-03-05T06:42:04.709Z,6.25
2023-03-05T06:44:48.364Z,6.31
2023-03-05T06:47:22.414Z,6.60
2023-03-05T06:49:56.288Z,7.16
2023-03-05T06:52:30.068Z,7.53
2023-03-05T06:55:07.872Z,7.21
2023-03-05T06:57:41.536Z,6.71
2023-03-05T07:00:17.349Z,6.37
2023-03-05T07:02:51.664Z,5.98
2023-03-05T07:05:25.356Z,5.73
2023-03-05T07:07:59.160Z,5.69
2023-03-05T07:10:32.480Z,5.63
2023-03-05T07:13:06.305Z,5.48
2023-03-05T07:15:42.441Z,5.29
2023-03-05T07:18:16.230Z,5.17
2023-03-05T07:20:49.865Z,5.12
2023-03-05T07:23:23.848Z,5.11
2023-03-05T07:25:57.534Z,5.15
2023-03-05T07:28:31.232Z,5.01
2023-03-05T07:31:07.317Z,4.80
2023-03-05T07:33:41.303Z,4.69
2023-03-05T07:36:15.820Z,4.56
2023-03-05T07:38:49.542Z,4.39
2023-03-05T07:41:24.019Z,4.27
2023-03-05T07:43:58.211Z,4.13
2023-03-05T07:46:33.580Z,4.06
2023-03-05T07:49:07.271Z,4.08
2023-03-05T07:51:41.848Z,4.04
2023-03-05T07:54:15.472Z,3.85
2023-03-05T07:56:49.272Z,3.71
2023-03-05T07:59:22.649Z,3.64
2023-03-05T08:01:56.529Z,3.55
2023-03-05T08:04:32.220Z,3.50
2023-03-05T08:07:06.741Z,3.52
2023-03-05T08:09:40.448Z,3.47
2023-03-05T08:12:14.342Z,3.45
2023-03-05T08:14:48.544Z,3.43
2023-03-05T08:17:22.505Z,3.43
2023-03-05T08:20:00.230Z,3.38
2023-03-05T08:22:36.301Z,3.31
2023-03-05T08:25:11.389Z,3.25
2023-03-05T08:27:47.412Z,3.24
2023-03-05T08:30:27.859Z,3.20
2023-03-05T08:33:01.737Z,3.18
2023-03-05T08:35:35.745Z,3.17
2023-03-05T08:38:09.524Z,3.23
2023-03-05T08:40:47.001Z,3.31
2023-03-05T08:43:20.730Z,3.34
2023-03-05T08:45:55.121Z,3.35
2023-03-05T08:48:29.348Z,3.39
2023-03-05T08:51:08.745Z,3.38
2023-03-05T08:53:43.085Z,3.38
2023-03-05T08:56:17.182Z,3.39
2023-03-05T08:58:52.835Z,3.35
2023-03-05T09:01:28.153Z,3.29
2023-03-05T09:04:02.725Z,3.24
2023-03-05T09:06:39.729Z,3.26
2023-03-05T09:09:14.628Z,3.23
2023-03-05T09:11:48.422Z,3.19
2023-03-05T09:14:22.575Z,3.15
2023-03-05T09:16:56.498Z,3.14
2023-03-05T09:19:30.660Z,3.18
2023-03-05T09:22:04.570Z,3.21
2023-03-05T09:24:38.547Z,3.25
2023-03-05T09:27:12.819Z,3.27
2023-03-05T09:29:46.307Z,3.27
2023-03-05T09:32:20.349Z,3.27
2023-03-05T09:34:53.924Z,3.25
2023-03-05T09:37:28.291Z,3.21
2023-03-05T09:40:02.111Z,3.19
2023-03-05T09:42:55.540Z,3.24
2023-03-05T09:45:32.230Z,3.34
2023-03-05T09:48:15.577Z,3.39
2023-03-05T09:50:54.990Z,3.43
2023-03-05T09:53:39.113Z,3.46
2023-03-05T09:56:17.276Z,3.48
2023-03-05T09:58:56.163Z,3.54
2023-03-05T10:01:35.081Z,3.60
2023-03-05T10:04:16.513Z,3.62
2023-03-05T10:06:55.078Z,3.59
2023-03-05T10:09:36.887Z,3.56
2023-03-05T10:12:23.689Z,3.54
2023-03-05T10:14:58.324Z,3.54
2023-03-05T10:17:57.376Z,3.57
2023-03-05T10:20:50.476Z,3.55
2023-03-05T10:23:35.715Z,3.51
2023-03-05T10:26:29.098Z,3.48
2023-03-05T10:29:15.174Z,3.47
2023-03-05T10:31:58.142Z,3.43
2023-03-05T10:35:05.292Z,3.38
2023-03-05T10:38:12.109Z,3.39
2023-03-05T10:40:56.252Z,3.37
2023-03-05T10:43:38.490Z,3.33
2023-03-05T10:46:18.998Z,3.35
2023-03-05T10:48:59.026Z,3.43
2023-03-05T10:51:41.370Z,3.45
2023-03-05T10:54:21.232Z,3.44
2023-03-05T10:57:07.058Z,3.42
2023-03-05T10:59:41.108Z,3.45
2023-03-05T11:02:17.074Z,3.48
2023-03-05T11:04:52.137Z,3.48
2023-03-05T11:07:43.011Z,3.41
2023-03-05T11:10:22.960Z,3.34
2023-03-05T11:12:58.352Z,3.32
2023-03-05T11:15:35.241Z,3.32
2023-03-05T11:18:25.751Z,3.25
2023-03-05T11:21:13.457Z,3.15
2023-03-05T11:24:05.584Z,3.09
2023-03-05T11:26:47.655Z,3.09
2023-03-05T11:29:26.139Z,3.04
2023-03-05T11:32:17.971Z,2.99
2023-03-05T11:34:54.263Z,3.02
2023-03-05T11:37:31.506Z,3.06
2023-03-05T11:40:24.962Z,3.11
2023-03-05T11:43:03.233Z,3.10
2023-03-05T11:45:40.646Z,3.10
2023-03-05T11:48:22.085Z,3.11
2023-03-05T11:51:01.432Z,3.12
2023-03-05T11:53:37.975Z,3.15
2023-03-05T11:56:27.643Z,3.22
2023-03-05T11:59:07.078Z,3.20
2023-03-05T12:01:48.437Z,3.20
2023-03-05T12:04:23.926Z,3.16
2023-03-05T12:07:02.153Z,3.18
2023-03-05T12:09:44.206Z,3.17
2023-03-05T12:12:36.591Z,3.12
2023-03-05T12:15:37.242Z,3.01
2023-03-05T12:18:28.502Z,2.96
2023-03-05T12:21:08.707Z,2.89
2023-03-05T12:24:01.952Z,2.88
2023-03-05T12:27:09.706Z,2.79
2023-03-05T12:29:46.116Z,2.70
2023-03-05T12:32:59.742Z,2.61
2023-03-05T12:35:39.609Z,2.53
2023-03-05T12:38:33.022Z,2.47
2023-03-05T12:41:37.953Z,2.49
2023-03-05T12:44:28.792Z,2.53
2023-03-05T12:47:23.973Z,2.56
2023-03-05T12:50:04.609Z,2.58
2023-03-05T12:52:47.162Z,2.63
2023-03-05T12:55:24.765Z,2.71
2023-03-05T12:58:05.282Z,2.78
2023-03-05T13:00:46.428Z,2.79
2023-03-05T13:03:26.038Z,2.75
2023-03-05T13:06:05.678Z,2.72
2023-03-05T13:08:45.048Z,2.72
2023-03-05T13:11:25.821Z,2.79
2023-03-05T13:14:04.991Z,2.83
2023-03-05T13:16:44.958Z,2.80
2023-03-05T13:19:23.027Z,2.80
2023-03-05T13:22:06.830Z,2.78
2023-03-05T13:24:44.062Z,2.79
2023-03-05T13:27:34.896Z,2.84
2023-03-05T13:30:25.794Z,2.76
2023-03-05T13:33:06.082Z,2.63
2023-03-05T13:35:52.305Z,2.61
2023-03-05T13:38:34.698Z,2.64
2023-03-05T13:41:25.992Z,2.71
2023-03-05T13:44:04.789Z,2.77
2023-03-05T13:46:43.016Z,2.78
2023-03-05T13:49:31.580Z,2.75
2023-03-05T13:52:12.209Z,2.70
2023-03-05T13:54:48.715Z,2.68
2023-03-05T13:57:46.833Z,2.64
2023-03-05T14:00:36.498Z,2.62
2023-03-05T14:03:27.061Z,2.58
2023-03-05T14:06:13.050Z,2.53
2023-03-05T14:08:59.368Z,2.49
2023-03-05T14:11:36.938Z,2.47
2023-03-05T14:14:21.821Z,2.52
2023-03-05T14:16:58.907Z,2.54
2023-03-05T14:19:41.550Z,2.56
2023-03-05T14:22:34.679Z,2.57
2023-03-05T14:25:25.659Z,2.60
2023-03-05T14:28:03.593Z,2.57
2023-03-05T14:30:48.423Z,2.55
2023-03-05T14:33:37.813Z,2.51
2023-03-05T14:36:23.849Z,2.47
2023-03-05T14:39:00.936Z,2.50
2023-03-05T14:41:45.744Z,2.53
2023-03-05T14:44:27.503Z,2.51
2023-03-05T14:47:04.117Z,2.49
2023-03-05T14:49:46.730Z,2.50
2023-03-05T14:52:27.748Z,2.47
2023-03-05T14:55:08.523Z,2.44
2023-03-05T14:57:44.785Z,2.43
2023-03-05T15:00:25.926Z,2.42
2023-03-05T15:03:06.744Z,2.39
2023-03-05T15:05:43.896Z,2.31
2023-03-05T15:08:23.776Z,2.26
2023-03-05T15:11:11.293Z,2.26
2023-03-05T15:13:47.309Z,2.28
2023-03-05T15:16:23.900Z,2.30
2023-03-05T15:19:07.500Z,2.30
2023-03-05T15:21:44.078Z,2.24
2023-03-05T15:24:20.336Z,2.19
2023-03-05T15:26:59.420Z,2.16
2023-03-05T15:29:35.761Z,2.14
2023-03-05T15:32:17.323Z,2.15
2023-03-05T15:34:52.902Z,2.12
2023-03-05T15:37:31.877Z,2.09
2023-03-05T15:40:12.366Z,2.05
2023-03-05T15:42:48.753Z,2.02
2023-03-05T15:45:26.168Z,2.01
2023-03-05T15:48:05.148Z,2.00
2023-03-05T15:50:43.271Z,1.97
2023-03-05T15:53:19.061Z,1.92
2023-03-05T15:55:59.603Z,1.88
2023-03-05T15:58:35.547Z,1.83
2023-03-05T16:01:14.485Z,1.77
2023-03-05T16:03:50.994Z,1.75
2023-03-05T16:06:30.988Z,1.79
2023-03-05T16:09:10.409Z,1.81
2023-03-05T16:11:50.040Z,1.74
2023-03-05T16:14:34.743Z,1.74
2023-03-05T16:17:19.949Z,1.78
2023-03-05T16:19:59.589Z,1.77
2023-03-05T16:22:38.404Z,1.72
2023-03-05T16:25:17.226Z,1.68
2023-03-05T16:27:58.347Z,1.62
2023-03-05T16:30:36.430Z,1.49
2023-03-05T16:33:17.791Z,1.43
2023-03-05T16:36:15.304Z,1.41
2023-03-05T16:38:53.035Z,1.41
2023-03-05T16:41:31.961Z,1.39
2023-03-05T16:44:10.434Z,1.37
2023-03-05T16:46:50.796Z,1.38
2023-03-05T16:49:28.695Z,1.36
2023-03-05T16:52:17.708Z,1.33
2023-03-05T16:55:00.829Z,1.33
2023-03-05T16:57:41.152Z,1.31
2023-03-05T17:00:26.101Z,1.30
2023-03-05T17:03:03.509Z,1.30
2023-03-05T17:05:45.266Z,1.31
2023-03-05T17:08:21.781Z,1.32
2023-03-05T17:11:00.267Z,1.33
2023-03-05T17:13:37.622Z,1.38
2023-03-05T17:16:18.622Z,1.39
2023-03-05T17:19:09.832Z,1.35
2023-03-05T17:21:52.095Z,1.28
2023-03-05T17:24:31.407Z,1.21
2023-03-05T17:27:08.397Z,1.12
2023-03-05T17:29:47.677Z,1.01
2023-03-05T17:32:28.146Z,0.92
2023-03-05T17:35:07.792Z,0.85
2023-03-05T17:37:44.926Z,0.80
2023-03-05T17:40:24.280Z,0.79
2023-03-05T17:43:05.999Z,0.81
2023-03-05T17:45:57.619Z,0.78
2023-03-05T17:48:40.407Z,0.72
2023-03-05T17:51:22.755Z,0.67
2023-03-05T17:54:00.143Z,0.61
2023-03-05T17:56:48.433Z,0.55
2023-03-05T17:59:29.123Z,0.51
2023-03-05T18:02:11.639Z,0.48
2023-03-05T18:04:53.673Z,0.44
2023-03-05T18:07:34.610Z,0.40
2023-03-05T18:10:14.651Z,0.37
2023-03-05T18:12:55.847Z,0.33
2023-03-05T18:15:34.048Z,0.31
2023-03-05T18:18:16.151Z,0.26
2023-03-05T18:20:55.772Z,0.22
2023-03-05T18:23:32.796Z,0.17
2023-03-05T18:26:19.214Z,0.06
2023-03-05T18:28:56.826Z,0.01
2023-03-05T18:31:34.246Z,-0.02
2023-03-05T18:34:20.322Z,-0.05
2023-03-05T18:36:56.664Z,-0.08
2023-03-05T18:39:36.734Z,-0.10
2023-03-05T18:42:19.783Z,-0.07
2023-03-05T18:45:00.336Z,-0.10
2023-03-05T18:47:37.482Z,-0.13
2023-03-05T18:50:19.764Z,-0.16
2023-03-05T18:52:59.848Z,-0.19
2023-03-05T18:55:37.850Z,-0.22
2023-03-05T18:58:16.252Z,-0.22
2023-03-05T19:00:53.880Z,-0.24
2023-03-05T19:03:31.741Z,-0.33
2023-03-05T19:06:10.723Z,-0.39
2023-03-05T19:08:58.991Z,-0.43
2023-03-05T19:11:40.331Z,-0.47
2023-03-05T19:14:18.846Z,-0.51
2023-03-05T19:17:00.672Z,-0.47
2023-03-05T19:19:39.305Z,-0.46
2023-03-05T19:22:22.568Z,-0.47
2023-03-05T19:25:02.959Z,-0.48
2023-03-05T19:27:41.365Z,-0.57
2023-03-05T19:30:23.929Z,-0.59
2023-03-05T19:33:05.717Z,-0.62
2023-03-05T19:35:44.244Z,-0.67
2023-03-05T19:38:22.324Z,-0.69
2023-03-05T19:40:59.758Z,-0.71
2023-03-05T19:43:38.956Z,-0.71
2023-03-05T19:46:21.154Z,-0.70
2023-03-05T19:48:59.654Z,-0.69
2023-03-05T19:51:38.815Z,-0.70
2023-03-05T19:54:22.016Z,-0.70
2023-03-05T19:57:00.391Z,-0.72
2023-03-05T19:59:38.307Z,-0.75
2023-03-05T20:02:20.698Z,-0.78
2023-03-05T20:05:09.409Z,-0.81
2023-03-05T20:07:48.666Z,-0.84
2023-03-05T20:10:27.499Z,-0.85
2023-03-05T20:13:11.146Z,-0.84
2023-03-05T20:15:51.326Z,-0.84
2023-03-05T20:18:30.614Z,-0.84
2023-03-05T20:21:10.630Z,-0.86
2023-03-05T20:23:49.377Z,-0.89
2023-03-05T20:26:39.910Z,-0.93
2023-03-05T20:29:18.388Z,-0.97
2023-03-05T20:31:58.033Z,-1.01
2023-03-05T20:34:36.436Z,-1.02
2023-03-05T20:37:15.000Z,-1.04
2023-03-05T20:39:54.946Z,-1.04
2023-03-05T20:42:32.334Z,-1.05
2023-03-05T20:45:10.151Z,-1.05
2023-03-05T20:47:49.829Z,-1.06
2023-03-05T20:50:27.420Z,-1.06
2023-03-05T20:53:06.155Z,-1.10
2023-03-05T20:55:42.399Z,-1.13
2023-03-05T20:58:18.710Z,-1.14
2023-03-05T21:00:55.787Z,-1.15
2023-03-05T21:03:35.486Z,-1.14
2023-03-05T21:06:13.968Z,-1.14
2023-03-05T21:08:52.543Z,-1.15
2023-03-05T21:11:30.801Z,-1.15
2023-03-05T21:17:00.787Z,-1.19
2023-03-05T21:19:39.467Z,-1.22
2023-03-05T21:22:14.712Z,-1.25
2023-03-05T21:25:03.666Z,-1.27
2023-03-05T21:27:41.394Z,-1.29
2023-03-05T21:30:18.351Z,-1.29
2023-03-05T21:32:53.168Z,-1.26
2023-03-05T21:35:30.854Z,-1.24
2023-03-05T21:38:11.232Z,-1.23
2023-03-05T21:40:50.358Z,-1.23
2023-03-05T21:43:25.902Z,-1.24
2023-03-05T21:46:05.059Z,-1.27
2023-03-05T21:48:40.288Z,-1.29
2023-03-05T21:51:14.524Z,-1.32
2023-03-05T21:53:49.193Z,-1.32
2023-03-05T21:56:26.068Z,-1.33
2023-03-05T21:59:01.015Z,-1.32
2023-03-05T22:01:34.720Z,-1.31
2023-03-05T22:04:08.782Z,-1.29
2023-03-05T22:06:42.428Z,-1.26
2023-03-05T22:09:15.957Z,-1.26
2023-03-05T22:11:49.545Z,-1.25
2023-03-05T22:14:23.113Z,-1.22
2023-03-05T22:17:02.149Z,-1.18
2023-03-05T22:19:36.408Z,-1.14
2023-03-05T22:22:10.155Z,-1.12
2023-03-05T22:24:44.095Z,-1.10
2023-03-05T22:27:17.624Z,-1.09
2023-03-05T22:29:51.404Z,-1.06
2023-03-05T22:32:25.539Z,-1.02
2023-03-05T22:35:00.432Z,-1.00
2023-03-05T22:37:34.978Z,-1.02
2023-03-05T22:40:11.529Z,-1.05
2023-03-05T22:42:45.862Z,-1.11
2023-03-05T22:45:21.143Z,-1.14
2023-03-05T22:47:54.940Z,-1.14
2023-03-05T22:50:29.014Z,-1.15
2023-03-05T22:53:03.985Z,-1.17
2023-03-05T22:55:39.426Z,-1.21
2023-03-05T22:58:13.776Z,-1.25
2023-03-05T23:00:49.059Z,-1.30
2023-03-05T23:03:22.703Z,-1.36
2023-03-05T23:05:56.674Z,-1.39
2023-03-05T23:08:30.321Z,-1.41
2023-03-05T23:11:09.300Z,-1.42
2023-03-05T23:13:43.780Z,-1.43
2023-03-05T23:16:17.742Z,-1.42
2023-03-05T23:18:51.684Z,-1.42
2023-03-05T23:21:25.497Z,-1.42
2023-03-05T23:23:59.175Z,-1.42
2023-03-05T23:26:32.716Z,-1.43
2023-03-05T23:29:07.129Z,-1.45
2023-03-05T23:31:40.847Z,-1.46
2023-03-05T23:34:14.778Z,-1.47
2023-03-05T23:36:48.722Z,-1.47
2023-03-05T23:39:22.630Z,-1.46
2023-03-05T23:41:56.360Z,-1.44
2023-03-05T23:44:29.800Z,-1.42
2023-03-05T23:47:03.814Z,-1.41
2023-03-05T23:49:37.440Z,-1.43
2023-03-05T23:52:11.181Z,-1.45
2023-03-05T23:54:44.728Z,-1.47
2023-03-05T23:57:18.489Z,-1.50
2023-03-05T23:59:52.116Z,-1.53
